sensor_id;sensor_type;location;lat;lon;timestamp;P1;durP1;ratioP1;P2;durP2;ratioP2
71806;SDS011;59655;42.590;23.364;2022-08-02T00:00:22;5.57;;;3.22;;
71806;SDS011;59655;42.590;23.364;2022-08-02T00:02:48;8.82;;;3.53;;
71806;SDS011;59655;42.590;23.364;2022-08-02T00:05:14;6.28;;;3.10;;
71806;SDS011;59655;42.590;23.364;2022-08-02T00:07:41;5.20;;;3.05;;
71806;SDS011;59655;42.590;23.364;2022-08-02T00:10:07;8.10;;;3.28;;
71806;SDS011;59655;42.590;23.364;2022-08-02T00:12:34;6.15;;;2.92;;
71806;SDS011;59655;42.590;23.364;2022-08-02T00:14:59;6.00;;;3.28;;
71806;SDS011;59655;42.590;23.364;2022-08-02T00:17:24;6.53;;;2.72;;
71806;SDS011;59655;42.590;23.364;2022-08-02T00:19:50;5.82;;;2.90;;
71806;SDS011;59655;42.590;23.364;2022-08-02T00:22:15;6.97;;;3.22;;
71806;SDS011;59655;42.590;23.364;2022-08-02T00:24:40;5.90;;;3.15;;
71806;SDS011;59655;42.590;23.364;2022-08-02T00:27:06;7.85;;;3.50;;
71806;SDS011;59655;42.590;23.364;2022-08-02T00:29:35;5.97;;;3.58;;
71806;SDS011;59655;42.590;23.364;2022-08-02T00:32:00;9.30;;;3.65;;
71806;SDS011;59655;42.590;23.364;2022-08-02T00:34:26;6.80;;;3.80;;
71806;SDS011;59655;42.590;23.364;2022-08-02T00:36:51;5.35;;;3.60;;
71806;SDS011;59655;42.590;23.364;2022-08-02T00:39:17;7.15;;;3.80;;
71806;SDS011;59655;42.590;23.364;2022-08-02T00:41:46;6.60;;;3.95;;
71806;SDS011;59655;42.590;23.364;2022-08-02T00:44:14;9.50;;;4.07;;
71806;SDS011;59655;42.590;23.364;2022-08-02T00:46:40;5.68;;;3.78;;
71806;SDS011;59655;42.590;23.364;2022-08-02T00:49:06;7.57;;;4.00;;
71806;SDS011;59655;42.590;23.364;2022-08-02T00:51:31;8.57;;;4.25;;
71806;SDS011;59655;42.590;23.364;2022-08-02T00:53:57;7.15;;;3.45;;
71806;SDS011;59655;42.590;23.364;2022-08-02T00:56:22;7.25;;;4.05;;
71806;SDS011;59655;42.590;23.364;2022-08-02T00:58:48;7.55;;;3.53;;
71806;SDS011;59655;42.590;23.364;2022-08-02T01:01:13;6.47;;;3.72;;
71806;SDS011;59655;42.590;23.364;2022-08-02T01:03:39;8.50;;;3.92;;
71806;SDS011;59655;42.590;23.364;2022-08-02T01:06:04;12.63;;;3.83;;
71806;SDS011;59655;42.590;23.364;2022-08-02T01:08:30;7.00;;;4.45;;
71806;SDS011;59655;42.590;23.364;2022-08-02T01:10:56;6.25;;;3.70;;
71806;SDS011;59655;42.590;23.364;2022-08-02T01:13:21;7.55;;;3.83;;
71806;SDS011;59655;42.590;23.364;2022-08-02T01:15:49;6.43;;;4.10;;
71806;SDS011;59655;42.590;23.364;2022-08-02T01:18:23;6.25;;;3.85;;
71806;SDS011;59655;42.590;23.364;2022-08-02T01:29:33;8.95;;;5.32;;
71806;SDS011;59655;42.590;23.364;2022-08-02T01:34:48;8.23;;;4.45;;
71806;SDS011;59655;42.590;23.364;2022-08-02T01:40:13;6.75;;;4.15;;
71806;SDS011;59655;42.590;23.364;2022-08-02T01:42:52;8.60;;;4.32;;
71806;SDS011;59655;42.590;23.364;2022-08-02T01:45:20;7.18;;;4.20;;
71806;SDS011;59655;42.590;23.364;2022-08-02T01:47:48;8.60;;;4.00;;
71806;SDS011;59655;42.590;23.364;2022-08-02T01:50:16;7.25;;;4.13;;
71806;SDS011;59655;42.590;23.364;2022-08-02T01:52:49;6.35;;;4.20;;
71806;SDS011;59655;42.590;23.364;2022-08-02T01:55:19;7.43;;;4.25;;
71806;SDS011;59655;42.590;23.364;2022-08-02T01:57:57;8.18;;;4.60;;
71806;SDS011;59655;42.590;23.364;2022-08-02T02:00:25;8.23;;;4.20;;
71806;SDS011;59655;42.590;23.364;2022-08-02T02:02:56;6.53;;;4.05;;
71806;SDS011;59655;42.590;23.364;2022-08-02T02:05:23;7.93;;;4.28;;
71806;SDS011;59655;42.590;23.364;2022-08-02T02:07:52;9.05;;;4.63;;
71806;SDS011;59655;42.590;23.364;2022-08-02T02:10:25;10.50;;;4.38;;
71806;SDS011;59655;42.590;23.364;2022-08-02T02:12:53;8.73;;;5.18;;
71806;SDS011;59655;42.590;23.364;2022-08-02T02:15:20;13.77;;;4.38;;
71806;SDS011;59655;42.590;23.364;2022-08-02T02:17:48;9.38;;;4.72;;
71806;SDS011;59655;42.590;23.364;2022-08-02T02:20:16;7.75;;;4.40;;
71806;SDS011;59655;42.590;23.364;2022-08-02T02:22:44;9.05;;;4.57;;
71806;SDS011;59655;42.590;23.364;2022-08-02T02:25:10;8.77;;;5.05;;
71806;SDS011;59655;42.590;23.364;2022-08-02T02:27:37;8.52;;;4.45;;
71806;SDS011;59655;42.590;23.364;2022-08-02T02:30:07;8.75;;;4.65;;
71806;SDS011;59655;42.590;23.364;2022-08-02T02:32:33;7.70;;;4.55;;
71806;SDS011;59655;42.590;23.364;2022-08-02T02:34:59;7.25;;;4.68;;
71806;SDS011;59655;42.590;23.364;2022-08-02T02:37:28;10.02;;;5.10;;
71806;SDS011;59655;42.590;23.364;2022-08-02T02:39:56;10.70;;;5.10;;
71806;SDS011;59655;42.590;23.364;2022-08-02T02:42:22;8.35;;;4.60;;
71806;SDS011;59655;42.590;23.364;2022-08-02T02:44:53;7.28;;;4.47;;
71806;SDS011;59655;42.590;23.364;2022-08-02T02:47:19;10.43;;;5.00;;
71806;SDS011;59655;42.590;23.364;2022-08-02T02:49:47;9.68;;;4.93;;
71806;SDS011;59655;42.590;23.364;2022-08-02T02:52:15;11.32;;;5.22;;
71806;SDS011;59655;42.590;23.364;2022-08-02T02:54:42;8.90;;;4.70;;
71806;SDS011;59655;42.590;23.364;2022-08-02T02:57:11;10.50;;;4.70;;
71806;SDS011;59655;42.590;23.364;2022-08-02T02:59:37;10.07;;;5.30;;
71806;SDS011;59655;42.590;23.364;2022-08-02T03:02:03;11.65;;;4.78;;
71806;SDS011;59655;42.590;23.364;2022-08-02T03:04:30;8.88;;;4.93;;
71806;SDS011;59655;42.590;23.364;2022-08-02T03:06:56;11.55;;;5.15;;
71806;SDS011;59655;42.590;23.364;2022-08-02T03:09:21;9.48;;;5.00;;
71806;SDS011;59655;42.590;23.364;2022-08-02T03:11:47;7.53;;;4.68;;
71806;SDS011;59655;42.590;23.364;2022-08-02T03:14:13;10.40;;;4.53;;
71806;SDS011;59655;42.590;23.364;2022-08-02T03:16:43;9.00;;;5.30;;
71806;SDS011;59655;42.590;23.364;2022-08-02T03:19:10;9.90;;;7.20;;
71806;SDS011;59655;42.590;23.364;2022-08-02T03:21:35;10.65;;;8.20;;
71806;SDS011;59655;42.590;23.364;2022-08-02T03:24:01;9.77;;;7.57;;
71806;SDS011;59655;42.590;23.364;2022-08-02T03:26:27;7.72;;;5.90;;
71806;SDS011;59655;42.590;23.364;2022-08-02T03:28:52;7.13;;;3.42;;
71806;SDS011;59655;42.590;23.364;2022-08-02T03:31:17;5.13;;;2.78;;
71806;SDS011;59655;42.590;23.364;2022-08-02T03:33:43;5.97;;;2.90;;
71806;SDS011;59655;42.590;23.364;2022-08-02T03:36:10;5.63;;;3.00;;
71806;SDS011;59655;42.590;23.364;2022-08-02T03:38:38;7.80;;;2.85;;
71806;SDS011;59655;42.590;23.364;2022-08-02T03:41:05;6.25;;;2.97;;
71806;SDS011;59655;42.590;23.364;2022-08-02T03:43:31;8.75;;;2.90;;
71806;SDS011;59655;42.590;23.364;2022-08-02T03:45:58;4.55;;;2.55;;
71806;SDS011;59655;42.590;23.364;2022-08-02T03:48:27;14.88;;;3.80;;
71806;SDS011;59655;42.590;23.364;2022-08-02T03:50:53;8.68;;;3.45;;
71806;SDS011;59655;42.590;23.364;2022-08-02T03:53:20;9.15;;;3.47;;
71806;SDS011;59655;42.590;23.364;2022-08-02T03:55:46;6.78;;;3.60;;
71806;SDS011;59655;42.590;23.364;2022-08-02T03:58:21;7.75;;;3.58;;
71806;SDS011;59655;42.590;23.364;2022-08-02T04:00:47;7.03;;;4.00;;
71806;SDS011;59655;42.590;23.364;2022-08-02T04:03:13;7.57;;;3.60;;
71806;SDS011;59655;42.590;23.364;2022-08-02T04:05:39;6.05;;;3.08;;
71806;SDS011;59655;42.590;23.364;2022-08-02T04:08:05;5.50;;;3.00;;
71806;SDS011;59655;42.590;23.364;2022-08-02T04:10:31;8.13;;;3.67;;
71806;SDS011;59655;42.590;23.364;2022-08-02T04:13:17;7.97;;;4.00;;
71806;SDS011;59655;42.590;23.364;2022-08-02T04:15:44;9.38;;;4.10;;
71806;SDS011;59655;42.590;23.364;2022-08-02T04:18:11;8.57;;;4.10;;
71806;SDS011;59655;42.590;23.364;2022-08-02T04:20:37;7.82;;;4.95;;
71806;SDS011;59655;42.590;23.364;2022-08-02T04:23:04;13.85;;;7.80;;
71806;SDS011;59655;42.590;23.364;2022-08-02T04:25:32;15.77;;;7.30;;
71806;SDS011;59655;42.590;23.364;2022-08-02T04:27:59;11.20;;;5.07;;
71806;SDS011;59655;42.590;23.364;2022-08-02T04:30:25;7.88;;;4.57;;
71806;SDS011;59655;42.590;23.364;2022-08-02T04:32:53;10.55;;;4.90;;
71806;SDS011;59655;42.590;23.364;2022-08-02T04:35:18;12.85;;;5.82;;
71806;SDS011;59655;42.590;23.364;2022-08-02T04:37:44;9.63;;;5.43;;
71806;SDS011;59655;42.590;23.364;2022-08-02T04:40:12;9.02;;;5.18;;
71806;SDS011;59655;42.590;23.364;2022-08-02T04:42:39;7.70;;;4.78;;
71806;SDS011;59655;42.590;23.364;2022-08-02T04:45:05;8.38;;;4.40;;
71806;SDS011;59655;42.590;23.364;2022-08-02T04:47:32;12.27;;;6.30;;
71806;SDS011;59655;42.590;23.364;2022-08-02T04:49:57;10.05;;;5.03;;
71806;SDS011;59655;42.590;23.364;2022-08-02T04:52:23;10.93;;;4.68;;
71806;SDS011;59655;42.590;23.364;2022-08-02T04:54:48;10.23;;;4.57;;
71806;SDS011;59655;42.590;23.364;2022-08-02T04:57:15;8.55;;;4.47;;
71806;SDS011;59655;42.590;23.364;2022-08-02T04:59:59;9.07;;;4.20;;
71806;SDS011;59655;42.590;23.364;2022-08-02T05:02:24;6.55;;;4.47;;
71806;SDS011;59655;42.590;23.364;2022-08-02T05:04:50;9.00;;;4.75;;
71806;SDS011;59655;42.590;23.364;2022-08-02T05:07:15;8.63;;;4.25;;
71806;SDS011;59655;42.590;23.364;2022-08-02T05:09:41;6.65;;;4.10;;
71806;SDS011;59655;42.590;23.364;2022-08-02T05:12:06;8.10;;;4.10;;
71806;SDS011;59655;42.590;23.364;2022-08-02T05:14:32;6.80;;;3.78;;
71806;SDS011;59655;42.590;23.364;2022-08-02T05:16:57;7.38;;;3.88;;
71806;SDS011;59655;42.590;23.364;2022-08-02T05:19:23;7.30;;;4.32;;
71806;SDS011;59655;42.590;23.364;2022-08-02T05:21:48;7.78;;;4.13;;
71806;SDS011;59655;42.590;23.364;2022-08-02T05:24:14;6.60;;;4.38;;
71806;SDS011;59655;42.590;23.364;2022-08-02T05:26:39;11.75;;;5.50;;
71806;SDS011;59655;42.590;23.364;2022-08-02T05:29:05;7.60;;;4.45;;
71806;SDS011;59655;42.590;23.364;2022-08-02T05:31:30;10.68;;;4.63;;
71806;SDS011;59655;42.590;23.364;2022-08-02T05:33:55;9.50;;;4.85;;
71806;SDS011;59655;42.590;23.364;2022-08-02T05:36:21;7.78;;;4.70;;
71806;SDS011;59655;42.590;23.364;2022-08-02T05:38:46;11.48;;;5.40;;
71806;SDS011;59655;42.590;23.364;2022-08-02T05:41:11;10.90;;;5.25;;
71806;SDS011;59655;42.590;23.364;2022-08-02T05:43:37;10.15;;;5.07;;
71806;SDS011;59655;42.590;23.364;2022-08-02T05:46:02;10.35;;;6.05;;
71806;SDS011;59655;42.590;23.364;2022-08-02T05:48:28;9.73;;;5.30;;
71806;SDS011;59655;42.590;23.364;2022-08-02T05:50:54;14.52;;;6.07;;
71806;SDS011;59655;42.590;23.364;2022-08-02T05:53:59;14.25;;;6.00;;
71806;SDS011;59655;42.590;23.364;2022-08-02T05:56:27;10.98;;;5.85;;
71806;SDS011;59655;42.590;23.364;2022-08-02T06:02:02;16.80;;;6.82;;
71806;SDS011;59655;42.590;23.364;2022-08-02T06:04:51;14.30;;;6.38;;
71806;SDS011;59655;42.590;23.364;2022-08-02T06:07:23;15.68;;;6.30;;
71806;SDS011;59655;42.590;23.364;2022-08-02T06:09:49;12.35;;;5.72;;
71806;SDS011;59655;42.590;23.364;2022-08-02T06:12:15;11.75;;;5.38;;
71806;SDS011;59655;42.590;23.364;2022-08-02T06:14:41;16.17;;;6.47;;
71806;SDS011;59655;42.590;23.364;2022-08-02T06:17:07;10.32;;;5.82;;
71806;SDS011;59655;42.590;23.364;2022-08-02T06:19:33;10.80;;;5.47;;
71806;SDS011;59655;42.590;23.364;2022-08-02T06:22:01;12.65;;;5.75;;
71806;SDS011;59655;42.590;23.364;2022-08-02T06:24:39;11.20;;;4.95;;
71806;SDS011;59655;42.590;23.364;2022-08-02T06:27:08;9.80;;;4.20;;
71806;SDS011;59655;42.590;23.364;2022-08-02T06:29:34;9.98;;;4.30;;
71806;SDS011;59655;42.590;23.364;2022-08-02T06:32:00;8.98;;;4.47;;
71806;SDS011;59655;42.590;23.364;2022-08-02T06:34:26;7.90;;;3.47;;
71806;SDS011;59655;42.590;23.364;2022-08-02T06:37:07;14.65;;;3.92;;
71806;SDS011;59655;42.590;23.364;2022-08-02T06:39:44;7.60;;;3.47;;
71806;SDS011;59655;42.590;23.364;2022-08-02T06:42:14;8.77;;;3.13;;
71806;SDS011;59655;42.590;23.364;2022-08-02T06:44:42;6.82;;;3.33;;
71806;SDS011;59655;42.590;23.364;2022-08-02T06:47:07;9.40;;;3.63;;
71806;SDS011;59655;42.590;23.364;2022-08-02T06:49:33;7.50;;;3.55;;
71806;SDS011;59655;42.590;23.364;2022-08-02T06:51:58;6.93;;;3.63;;
71806;SDS011;59655;42.590;23.364;2022-08-02T06:54:24;10.48;;;3.75;;
71806;SDS011;59655;42.590;23.364;2022-08-02T06:56:49;6.93;;;3.28;;
71806;SDS011;59655;42.590;23.364;2022-08-02T06:59:14;8.23;;;3.80;;
71806;SDS011;59655;42.590;23.364;2022-08-02T07:01:40;7.20;;;3.40;;
71806;SDS011;59655;42.590;23.364;2022-08-02T07:04:05;8.02;;;3.25;;
71806;SDS011;59655;42.590;23.364;2022-08-02T07:06:31;12.40;;;5.03;;
71806;SDS011;59655;42.590;23.364;2022-08-02T07:08:56;7.10;;;3.63;;
71806;SDS011;59655;42.590;23.364;2022-08-02T07:11:22;4.40;;;2.90;;
71806;SDS011;59655;42.590;23.364;2022-08-02T07:13:48;9.38;;;3.42;;
71806;SDS011;59655;42.590;23.364;2022-08-02T07:16:13;4.95;;;3.10;;
71806;SDS011;59655;42.590;23.364;2022-08-02T07:18:39;8.10;;;3.50;;
71806;SDS011;59655;42.590;23.364;2022-08-02T07:21:04;7.20;;;3.30;;
71806;SDS011;59655;42.590;23.364;2022-08-02T07:23:30;6.38;;;3.17;;
71806;SDS011;59655;42.590;23.364;2022-08-02T07:25:56;5.15;;;3.97;;
71806;SDS011;59655;42.590;23.364;2022-08-02T07:28:21;7.43;;;3.65;;
71806;SDS011;59655;42.590;23.364;2022-08-02T07:30:47;7.03;;;3.22;;
71806;SDS011;59655;42.590;23.364;2022-08-02T07:33:12;5.30;;;3.10;;
71806;SDS011;59655;42.590;23.364;2022-08-02T07:35:37;7.60;;;3.63;;
71806;SDS011;59655;42.590;23.364;2022-08-02T07:38:03;7.10;;;3.83;;
71806;SDS011;59655;42.590;23.364;2022-08-02T07:40:28;7.57;;;3.50;;
71806;SDS011;59655;42.590;23.364;2022-08-02T07:42:54;8.52;;;3.30;;
71806;SDS011;59655;42.590;23.364;2022-08-02T07:45:21;9.65;;;3.55;;
71806;SDS011;59655;42.590;23.364;2022-08-02T07:47:47;7.38;;;3.35;;
71806;SDS011;59655;42.590;23.364;2022-08-02T07:50:15;9.40;;;5.40;;
71806;SDS011;59655;42.590;23.364;2022-08-02T07:52:41;8.32;;;3.53;;
71806;SDS011;59655;42.590;23.364;2022-08-02T07:55:08;6.88;;;3.70;;
71806;SDS011;59655;42.590;23.364;2022-08-02T07:57:35;7.13;;;3.15;;
71806;SDS011;59655;42.590;23.364;2022-08-02T08:00:02;7.78;;;3.05;;
71806;SDS011;59655;42.590;23.364;2022-08-02T08:02:28;5.30;;;2.83;;
71806;SDS011;59655;42.590;23.364;2022-08-02T08:04:54;7.78;;;4.38;;
71806;SDS011;59655;42.590;23.364;2022-08-02T08:07:20;6.35;;;3.08;;
71806;SDS011;59655;42.590;23.364;2022-08-02T08:09:45;6.47;;;3.83;;
71806;SDS011;59655;42.590;23.364;2022-08-02T08:12:12;7.00;;;3.20;;
71806;SDS011;59655;42.590;23.364;2022-08-02T08:14:39;5.72;;;3.10;;
71806;SDS011;59655;42.590;23.364;2022-08-02T08:17:04;9.23;;;2.75;;
71806;SDS011;59655;42.590;23.364;2022-08-02T08:19:30;4.70;;;2.60;;
71806;SDS011;59655;42.590;23.364;2022-08-02T08:21:56;5.93;;;2.70;;
71806;SDS011;59655;42.590;23.364;2022-08-02T08:24:24;7.60;;;3.65;;
71806;SDS011;59655;42.590;23.364;2022-08-02T08:26:53;8.65;;;3.30;;
71806;SDS011;59655;42.590;23.364;2022-08-02T08:29:19;8.90;;;2.88;;
71806;SDS011;59655;42.590;23.364;2022-08-02T08:31:45;7.70;;;2.63;;
71806;SDS011;59655;42.590;23.364;2022-08-02T08:34:11;4.68;;;2.85;;
71806;SDS011;59655;42.590;23.364;2022-08-02T08:36:36;5.15;;;2.72;;
71806;SDS011;59655;42.590;23.364;2022-08-02T08:39:02;8.00;;;3.58;;
71806;SDS011;59655;42.590;23.364;2022-08-02T08:41:28;9.65;;;3.20;;
71806;SDS011;59655;42.590;23.364;2022-08-02T08:43:54;6.20;;;3.00;;
71806;SDS011;59655;42.590;23.364;2022-08-02T08:46:29;5.65;;;2.80;;
71806;SDS011;59655;42.590;23.364;2022-08-02T08:48:59;10.98;;;3.00;;
71806;SDS011;59655;42.590;23.364;2022-08-02T08:51:30;10.35;;;3.33;;
71806;SDS011;59655;42.590;23.364;2022-08-02T08:54:01;6.70;;;3.20;;
71806;SDS011;59655;42.590;23.364;2022-08-02T08:56:28;11.10;;;3.45;;
71806;SDS011;59655;42.590;23.364;2022-08-02T08:58:57;6.40;;;2.80;;
71806;SDS011;59655;42.590;23.364;2022-08-02T09:01:23;4.95;;;2.90;;
71806;SDS011;59655;42.590;23.364;2022-08-02T09:03:49;6.32;;;3.00;;
71806;SDS011;59655;42.590;23.364;2022-08-02T09:06:14;10.95;;;3.83;;
71806;SDS011;59655;42.590;23.364;2022-08-02T09:08:40;7.43;;;3.10;;
71806;SDS011;59655;42.590;23.364;2022-08-02T09:11:24;11.38;;;3.95;;
71806;SDS011;59655;42.590;23.364;2022-08-02T09:13:54;6.03;;;3.45;;
71806;SDS011;59655;42.590;23.364;2022-08-02T09:16:34;5.82;;;3.28;;
71806;SDS011;59655;42.590;23.364;2022-08-02T09:21:44;8.05;;;3.30;;
71806;SDS011;59655;42.590;23.364;2022-08-02T09:24:16;8.00;;;3.22;;
71806;SDS011;59655;42.590;23.364;2022-08-02T09:26:46;8.02;;;3.42;;
71806;SDS011;59655;42.590;23.364;2022-08-02T09:29:12;6.47;;;3.20;;
71806;SDS011;59655;42.590;23.364;2022-08-02T09:31:38;6.75;;;3.22;;
71806;SDS011;59655;42.590;23.364;2022-08-02T09:34:03;4.70;;;2.83;;
71806;SDS011;59655;42.590;23.364;2022-08-02T09:36:45;5.70;;;3.10;;
71806;SDS011;59655;42.590;23.364;2022-08-02T09:39:13;6.32;;;3.00;;
71806;SDS011;59655;42.590;23.364;2022-08-02T09:41:41;7.30;;;3.50;;
71806;SDS011;59655;42.590;23.364;2022-08-02T09:44:10;10.20;;;3.25;;
71806;SDS011;59655;42.590;23.364;2022-08-02T09:46:37;7.07;;;3.60;;
71806;SDS011;59655;42.590;23.364;2022-08-02T09:51:38;5.85;;;2.70;;
71806;SDS011;59655;42.590;23.364;2022-08-02T09:54:14;5.28;;;2.63;;
71806;SDS011;59655;42.590;23.364;2022-08-02T09:59:11;10.52;;;6.70;;
71806;SDS011;59655;42.590;23.364;2022-08-02T10:01:37;7.30;;;3.85;;
71806;SDS011;59655;42.590;23.364;2022-08-02T10:04:04;7.30;;;3.30;;
71806;SDS011;59655;42.590;23.364;2022-08-02T10:06:32;16.00;;;4.38;;
71806;SDS011;59655;42.590;23.364;2022-08-02T10:08:58;5.07;;;3.13;;
71806;SDS011;59655;42.590;23.364;2022-08-02T10:11:24;4.38;;;2.60;;
71806;SDS011;59655;42.590;23.364;2022-08-02T10:13:52;7.03;;;3.00;;
71806;SDS011;59655;42.590;23.364;2022-08-02T10:16:19;10.20;;;4.10;;
71806;SDS011;59655;42.590;23.364;2022-08-02T10:18:48;5.05;;;2.95;;
71806;SDS011;59655;42.590;23.364;2022-08-02T10:21:16;3.60;;;2.47;;
71806;SDS011;59655;42.590;23.364;2022-08-02T10:24:06;10.13;;;2.90;;
71806;SDS011;59655;42.590;23.364;2022-08-02T10:29:03;4.47;;;2.67;;
71806;SDS011;59655;42.590;23.364;2022-08-02T10:32:11;9.95;;;2.67;;
71806;SDS011;59655;42.590;23.364;2022-08-02T10:34:20;4.80;;;2.55;;
71806;SDS011;59655;42.590;23.364;2022-08-02T10:36:51;4.82;;;2.40;;
71806;SDS011;59655;42.590;23.364;2022-08-02T10:39:17;5.47;;;2.63;;
71806;SDS011;59655;42.590;23.364;2022-08-02T10:41:44;5.15;;;2.70;;
71806;SDS011;59655;42.590;23.364;2022-08-02T10:44:25;6.05;;;2.60;;
71806;SDS011;59655;42.590;23.364;2022-08-02T10:49:57;4.28;;;2.20;;
71806;SDS011;59655;42.590;23.364;2022-08-02T10:52:24;4.28;;;2.60;;
71806;SDS011;59655;42.590;23.364;2022-08-02T10:54:55;4.25;;;2.63;;
71806;SDS011;59655;42.590;23.364;2022-08-02T10:57:23;6.82;;;2.72;;
71806;SDS011;59655;42.590;23.364;2022-08-02T10:59:54;5.25;;;2.85;;
71806;SDS011;59655;42.590;23.364;2022-08-02T11:07:32;5.15;;;2.70;;
71806;SDS011;59655;42.590;23.364;2022-08-02T11:10:26;5.20;;;3.08;;
71806;SDS011;59655;42.590;23.364;2022-08-02T11:15:26;4.63;;;2.92;;
71806;SDS011;59655;42.590;23.364;2022-08-02T11:17:55;4.97;;;2.90;;
71806;SDS011;59655;42.590;23.364;2022-08-02T11:20:23;5.18;;;2.55;;
71806;SDS011;59655;42.590;23.364;2022-08-02T11:22:51;4.78;;;2.70;;
71806;SDS011;59655;42.590;23.364;2022-08-02T11:27:46;5.13;;;3.00;;
71806;SDS011;59655;42.590;23.364;2022-08-02T11:30:12;6.80;;;2.70;;
71806;SDS011;59655;42.590;23.364;2022-08-02T11:32:38;7.22;;;3.20;;
71806;SDS011;59655;42.590;23.364;2022-08-02T11:35:04;4.60;;;2.83;;
71806;SDS011;59655;42.590;23.364;2022-08-02T11:37:33;9.13;;;3.22;;
71806;SDS011;59655;42.590;23.364;2022-08-02T11:40:00;8.30;;;3.33;;
71806;SDS011;59655;42.590;23.364;2022-08-02T11:42:30;5.50;;;2.80;;
71806;SDS011;59655;42.590;23.364;2022-08-02T11:44:56;5.28;;;3.17;;
71806;SDS011;59655;42.590;23.364;2022-08-02T11:47:22;4.10;;;2.75;;
71806;SDS011;59655;42.590;23.364;2022-08-02T11:49:47;5.70;;;3.10;;
71806;SDS011;59655;42.590;23.364;2022-08-02T11:52:13;4.70;;;2.90;;
71806;SDS011;59655;42.590;23.364;2022-08-02T11:54:39;6.97;;;2.33;;
71806;SDS011;59655;42.590;23.364;2022-08-02T11:57:15;3.78;;;2.30;;
71806;SDS011;59655;42.590;23.364;2022-08-02T11:59:43;9.27;;;2.60;;
71806;SDS011;59655;42.590;23.364;2022-08-02T12:02:10;4.45;;;2.92;;
71806;SDS011;59655;42.590;23.364;2022-08-02T12:04:36;5.38;;;3.00;;
71806;SDS011;59655;42.590;23.364;2022-08-02T12:07:02;6.90;;;2.80;;
71806;SDS011;59655;42.590;23.364;2022-08-02T12:09:29;6.53;;;3.00;;
71806;SDS011;59655;42.590;23.364;2022-08-02T12:11:56;6.35;;;3.15;;
71806;SDS011;59655;42.590;23.364;2022-08-02T12:14:24;6.38;;;2.42;;
71806;SDS011;59655;42.590;23.364;2022-08-02T12:19:35;6.38;;;2.30;;
71806;SDS011;59655;42.590;23.364;2022-08-02T12:22:08;8.57;;;2.72;;
71806;SDS011;59655;42.590;23.364;2022-08-02T12:24:45;8.25;;;2.67;;
71806;SDS011;59655;42.590;23.364;2022-08-02T12:27:29;6.72;;;2.95;;
71806;SDS011;59655;42.590;23.364;2022-08-02T12:29:59;11.65;;;2.80;;
71806;SDS011;59655;42.590;23.364;2022-08-02T12:32:26;3.60;;;2.33;;
71806;SDS011;59655;42.590;23.364;2022-08-02T12:37:32;5.63;;;2.45;;
71806;SDS011;59655;42.590;23.364;2022-08-02T12:39:58;9.55;;;2.63;;
71806;SDS011;59655;42.590;23.364;2022-08-02T12:42:49;6.13;;;2.42;;
71806;SDS011;59655;42.590;23.364;2022-08-02T12:45:17;5.30;;;2.67;;
71806;SDS011;59655;42.590;23.364;2022-08-02T12:47:44;9.65;;;2.70;;
71806;SDS011;59655;42.590;23.364;2022-08-02T12:50:34;8.73;;;2.47;;
71806;SDS011;59655;42.590;23.364;2022-08-02T12:53:12;9.80;;;2.65;;
71806;SDS011;59655;42.590;23.364;2022-08-02T12:55:46;4.10;;;2.28;;
71806;SDS011;59655;42.590;23.364;2022-08-02T12:58:19;5.47;;;2.80;;
71806;SDS011;59655;42.590;23.364;2022-08-02T13:00:52;4.95;;;2.40;;
71806;SDS011;59655;42.590;23.364;2022-08-02T13:03:18;8.98;;;6.70;;
71806;SDS011;59655;42.590;23.364;2022-08-02T13:05:44;6.78;;;2.80;;
71806;SDS011;59655;42.590;23.364;2022-08-02T13:08:09;4.22;;;2.28;;
71806;SDS011;59655;42.590;23.364;2022-08-02T13:10:35;13.77;;;3.50;;
71806;SDS011;59655;42.590;23.364;2022-08-02T13:13:00;6.25;;;2.60;;
71806;SDS011;59655;42.590;23.364;2022-08-02T13:15:26;5.10;;;2.42;;
71806;SDS011;59655;42.590;23.364;2022-08-02T13:17:52;7.07;;;4.05;;
71806;SDS011;59655;42.590;23.364;2022-08-02T13:20:18;12.77;;;3.30;;
71806;SDS011;59655;42.590;23.364;2022-08-02T13:22:43;17.42;;;3.60;;
71806;SDS011;59655;42.590;23.364;2022-08-02T13:25:09;8.10;;;2.90;;
71806;SDS011;59655;42.590;23.364;2022-08-02T13:27:35;14.70;;;3.55;;
71806;SDS011;59655;42.590;23.364;2022-08-02T13:30:02;12.80;;;3.20;;
71806;SDS011;59655;42.590;23.364;2022-08-02T13:32:29;8.60;;;2.92;;
71806;SDS011;59655;42.590;23.364;2022-08-02T13:34:57;7.30;;;2.55;;
71806;SDS011;59655;42.590;23.364;2022-08-02T13:37:23;5.30;;;2.80;;
71806;SDS011;59655;42.590;23.364;2022-08-02T13:39:49;7.95;;;2.65;;
71806;SDS011;59655;42.590;23.364;2022-08-02T13:42:14;8.80;;;2.67;;
71806;SDS011;59655;42.590;23.364;2022-08-02T13:44:40;12.15;;;3.03;;
71806;SDS011;59655;42.590;23.364;2022-08-02T13:47:05;8.85;;;2.97;;
71806;SDS011;59655;42.590;23.364;2022-08-02T13:49:32;7.65;;;2.60;;
71806;SDS011;59655;42.590;23.364;2022-08-02T13:51:57;5.95;;;2.58;;
71806;SDS011;59655;42.590;23.364;2022-08-02T13:54:23;6.38;;;2.65;;
71806;SDS011;59655;42.590;23.364;2022-08-02T13:56:48;6.90;;;2.70;;
71806;SDS011;59655;42.590;23.364;2022-08-02T13:59:13;6.80;;;2.65;;
71806;SDS011;59655;42.590;23.364;2022-08-02T14:01:39;7.65;;;2.60;;
71806;SDS011;59655;42.590;23.364;2022-08-02T14:04:04;6.50;;;2.40;;
71806;SDS011;59655;42.590;23.364;2022-08-02T14:06:30;4.68;;;2.63;;
71806;SDS011;59655;42.590;23.364;2022-08-02T14:08:55;7.72;;;2.88;;
71806;SDS011;59655;42.590;23.364;2022-08-02T14:11:21;6.07;;;3.13;;
71806;SDS011;59655;42.590;23.364;2022-08-02T14:13:46;5.15;;;2.97;;
71806;SDS011;59655;42.590;23.364;2022-08-02T14:16:12;4.57;;;2.20;;
71806;SDS011;59655;42.590;23.364;2022-08-02T14:18:37;5.45;;;3.03;;
71806;SDS011;59655;42.590;23.364;2022-08-02T14:21:02;9.13;;;2.70;;
71806;SDS011;59655;42.590;23.364;2022-08-02T14:23:28;14.27;;;3.58;;
71806;SDS011;59655;42.590;23.364;2022-08-02T14:25:55;4.68;;;2.38;;
71806;SDS011;59655;42.590;23.364;2022-08-02T14:28:20;3.13;;;2.33;;
71806;SDS011;59655;42.590;23.364;2022-08-02T14:30:46;4.85;;;2.35;;
71806;SDS011;59655;42.590;23.364;2022-08-02T14:33:11;4.30;;;2.55;;
71806;SDS011;59655;42.590;23.364;2022-08-02T14:35:36;3.40;;;2.33;;
71806;SDS011;59655;42.590;23.364;2022-08-02T14:38:02;7.82;;;2.80;;
71806;SDS011;59655;42.590;23.364;2022-08-02T14:40:28;14.85;;;3.15;;
71806;SDS011;59655;42.590;23.364;2022-08-02T14:42:53;10.82;;;2.83;;
71806;SDS011;59655;42.590;23.364;2022-08-02T14:45:19;21.45;;;4.07;;
71806;SDS011;59655;42.590;23.364;2022-08-02T14:47:47;9.30;;;2.83;;
71806;SDS011;59655;42.590;23.364;2022-08-02T14:50:13;6.28;;;2.50;;
71806;SDS011;59655;42.590;23.364;2022-08-02T14:52:39;11.13;;;2.75;;
71806;SDS011;59655;42.590;23.364;2022-08-02T14:55:04;8.77;;;2.83;;
71806;SDS011;59655;42.590;23.364;2022-08-02T14:57:30;6.63;;;1.90;;
71806;SDS011;59655;42.590;23.364;2022-08-02T14:59:56;4.95;;;2.40;;
71806;SDS011;59655;42.590;23.364;2022-08-02T15:02:24;7.85;;;2.67;;
71806;SDS011;59655;42.590;23.364;2022-08-02T15:04:51;5.88;;;2.50;;
71806;SDS011;59655;42.590;23.364;2022-08-02T15:07:16;3.75;;;1.85;;
71806;SDS011;59655;42.590;23.364;2022-08-02T15:09:41;7.28;;;2.60;;
71806;SDS011;59655;42.590;23.364;2022-08-02T15:12:07;4.57;;;2.13;;
71806;SDS011;59655;42.590;23.364;2022-08-02T15:14:34;4.50;;;2.28;;
71806;SDS011;59655;42.590;23.364;2022-08-02T15:17:00;6.85;;;2.95;;
71806;SDS011;59655;42.590;23.364;2022-08-02T15:19:26;4.13;;;2.38;;